This is the latest recevied weather packets stored in our database for station/object VK3ANZ. If no packets are shown the sender has not sent any weather packets the latest 10 day(s).
| Time | Temp. | Humidity | Pressure | Rain* | Wind** | Luminosity | Snow |
|---|---|---|---|---|---|---|---|
| 1777476324 | 11.67° C | 48% | 1027.5 hPa | 0 mm | - | 0 W/m² | - |
| 1777475124 | 12.22° C | 47% | 1027.6 hPa | 0 mm | - | 0 W/m² | - |
| 1777471544 | 12.78° C | 43% | 1027.8 hPa | 0 mm | - | 0 W/m² | - |
| 1777466724 | 13.89° C | 40% | 1028.2 hPa | 0 mm | - | 0 W/m² | - |
| 1777463721 | 15° C | 36% | 1028.2 hPa | 0 mm | - | 0 W/m² | - |
| 1777458931 | 16.67° C | 33% | 1028 hPa | 0 mm | - | 0 W/m² | - |
| 1777457731 | 16.11° C | 33% | 1027.8 hPa | 0 mm | - | 0 W/m² | - |
| 1777457119 | 16.11° C | 33% | 1027.8 hPa | 0 mm | - | 0 W/m² | - |
| 1777448743 | 20.56° C | 24% | 1027.2 hPa | 0 mm | - | 0 W/m² | - |
| 1777446931 | 22.78° C | 18% | 1027 hPa | 0 mm | - | 8 W/m² | - |
| 1777443963 | 25° C | 10% | 1026.9 hPa | 0 mm | - | 34 W/m² | - |
| 1777439117 | 25.56° C | 10% | 1027.1 hPa | 0 mm | - | 70 W/m² | - |
| 1777438531 | 25° C | 11% | 1027.1 hPa | 0 mm | - | 93 W/m² | - |
| 1777437331 | 23.33° C | 11% | 1027.2 hPa | 0 mm | - | 140 W/m² | - |
| 1777433123 | 23.33° C | 11% | 1027.7 hPa | 0 mm | - | 171 W/m² | - |
| 1777430145 | 21.67° C | 18% | 1028.4 hPa | 0 mm | - | 249 W/m² | - |
| 1777429520 | 21.67° C | 19% | 1028.7 hPa | 0 mm | - | 260 W/m² | - |
| 1777426550 | 20.56° C | 21% | 1029.3 hPa | 0 mm | - | 327 W/m² | - |
| 1777423522 | 18.89° C | 23% | 1029.8 hPa | 0 mm | - | 318 W/m² | - |
| 1777422930 | 18.89° C | 23% | 1029.8 hPa | 0 mm | - | 317 W/m² | - |
| 1777421122 | 17.22° C | 29% | 1029.9 hPa | 0 mm | - | 299 W/m² | - |
| 1777419922 | 17.22° C | 30% | 1030.1 hPa | 0 mm | - | 282 W/m² | - |
| 1777419330 | 17.22° C | 30% | 1030.1 hPa | 0 mm | - | 291 W/m² | - |
| 1777418722 | 16.67° C | 30% | 1030.2 hPa | 0 mm | - | 290 W/m² | - |
| 1777416326 | 12.78° C | 69% | 1030.2 hPa | 0 mm | - | 176 W/m² | - |
* Rain latest hour (hover to see other rain measurements)
** Current wind speed in m/s (hover to see current wind gust speed)